Time;durP1;ratioP1;P1;durP2;ratioP2;P2;SDS_P1;SDS_P2;PMS_P1;PMS_P2;Temp;Humidity;BMP_temperature;BMP_pressure;BME280_temperature;BME280_humidity;BME280_pressure;Samples;Min_cycle;Max_cycle;Signal;HPM_P1;HPM_P2
2023/08/27 00:01:43;;;;;;;;;;;22.00;46.80;;;21.46;47.08;100789.28;12129091;19;19922;-87
2023/08/27 00:05:45;;;;;;;;;;;22.00;46.70;;;21.39;46.79;100789.06;12126959;19;19952;-87
2023/08/27 00:09:47;;;;;;;;;;;22.00;46.70;;;21.29;46.91;100782.97;12122060;19;19919;-87
2023/08/27 00:13:48;;;;;;;;;;;22.00;46.70;;;21.35;47.04;100787.66;12136744;19;20257;-87
2023/08/27 00:17:50;;;;;;;;;;;21.90;46.70;;;21.39;46.91;100799.69;12130609;19;20279;-87
2023/08/27 00:21:52;;;;;;;;;;;21.90;46.70;;;21.33;47.28;100779.84;12134317;19;20395;-87
2023/08/27 00:25:53;;;;;;;;;;;21.90;46.80;;;21.28;46.77;100760.88;12148453;19;20447;-86
2023/08/27 00:29:55;;;;;;;;;;;21.90;46.70;;;21.18;46.99;100765.44;12142236;19;19938;-87
2023/08/27 00:33:57;;;;;;;;;;;21.80;46.70;;;21.12;47.09;100766.88;12147811;19;19915;-87
2023/08/27 00:37:59;;;;;;;;;;;21.70;46.60;;;21.05;47.33;100762.31;12147348;19;19934;-87
2023/08/27 00:42:01;;;;;;;;;;;21.60;46.70;;;20.96;47.19;100750.81;12143904;19;19998;-87
2023/08/27 00:46:05;;;;;;;;;;;21.60;46.80;;;20.90;47.05;100757.56;12148137;19;20419;-86
2023/08/27 00:50:08;;;;;;;;;;;21.50;46.80;;;20.91;47.11;100774.31;12143069;19;19935;-86
2023/08/27 00:54:11;;;;;;;;;;;21.50;46.90;;;20.89;46.99;100766.47;12148090;19;19937;-86
2023/08/27 00:58:12;;;;;;;;;;;21.50;47.00;;;20.90;47.33;100772.63;12148526;19;19926;-86
2023/08/27 01:02:15;;;;;;;;;;;21.40;47.00;;;20.83;47.21;100774.22;12143536;19;19951;-86
2023/08/27 01:06:17;;;;;;;;;;;21.40;47.00;;;20.84;47.43;100770.59;12149945;19;20211;-86
2023/08/27 01:10:36;;;;;;;;;;;21.40;47.00;;;20.74;47.48;100755.56;12143916;19;19938;-86
2023/08/27 01:14:42;;;;;;;;;;;21.40;47.00;;;20.74;47.00;100768.00;12149361;19;21101;-86
2023/08/27 01:18:44;;;;;;;;;;;21.30;47.00;;;20.70;47.05;100777.25;12144221;19;19930;-86
2023/08/27 01:23:15;;;;;;;;;;;21.30;47.00;;;20.61;47.27;100778.97;12144310;19;20355;-86
2023/08/27 01:27:43;;;;;;;;;;;21.20;47.20;;;20.49;47.28;100786.25;12148519;19;19918;-86
2023/08/27 01:31:53;;;;;;;;;;;21.10;47.00;;;20.40;47.26;100759.78;12144546;19;20451;-86
2023/08/27 01:35:59;;;;;;;;;;;21.00;47.00;;;20.29;47.45;100763.47;12147424;19;20748;-86
2023/08/27 01:40:05;;;;;;;;;;;20.90;47.00;;;20.21;47.22;100764.19;12141894;19;20330;-86
2023/08/27 01:44:07;;;;;;;;;;;20.80;47.10;;;20.22;47.51;100797.69;12146132;19;19965;-86
2023/08/27 01:48:08;;;;;;;;;;;20.80;47.20;;;20.21;47.49;100788.06;12143902;19;19911;-86
2023/08/27 01:52:10;;;;;;;;;;;20.80;47.30;;;20.21;47.65;100792.53;12148531;19;19946;-86
2023/08/27 01:56:11;;;;;;;;;;;20.70;47.30;;;20.18;47.60;100766.31;12146366;19;20782;-86
2023/08/27 02:00:16;;;;;;;;;;;20.70;47.40;;;20.13;47.40;100745.53;12137066;19;20023;-87
2023/08/27 02:04:17;;;;;;;;;;;20.70;47.50;;;20.10;47.78;100738.69;12147424;19;19942;-86
2023/08/27 02:08:19;;;;;;;;;;;20.70;47.50;;;20.06;47.74;100749.75;12142351;19;20891;-86
2023/08/27 02:12:21;;;;;;;;;;;20.60;47.40;;;20.07;47.84;100748.78;12146974;19;20194;-86
2023/08/27 02:16:23;;;;;;;;;;;20.60;47.50;;;19.94;47.79;100725.25;12146391;19;20670;-86
2023/08/27 02:20:25;;;;;;;;;;;20.60;48.00;;;20.02;47.55;100746.56;12141162;19;20198;-86
2023/08/27 02:24:27;;;;;;;;;;;20.60;47.50;;;19.95;47.93;100734.84;12145237;19;19919;-86
2023/08/27 02:28:29;;;;;;;;;;;20.60;47.50;;;19.92;47.73;100745.75;12142470;19;20331;-86
2023/08/27 02:32:30;;;;;;;;;;;20.50;47.50;;;19.79;47.71;100708.13;12144255;19;20511;-86
2023/08/27 02:36:32;;;;;;;;;;;20.50;47.50;;;19.82;47.55;100740.50;12145445;19;19921;-86
2023/08/27 02:40:35;;;;;;;;;;;20.50;48.00;;;19.82;47.65;100764.34;12140996;19;20702;-86
2023/08/27 02:44:37;;;;;;;;;;;20.50;47.60;;;19.87;48.10;100756.81;12142347;19;20887;-86
2023/08/27 02:48:38;;;;;;;;;;;20.40;47.60;;;19.84;48.03;100727.09;12142819;19;20006;-86
2023/08/27 02:52:41;;;;;;;;;;;20.40;47.80;;;19.81;48.19;100740.63;12145015;19;19915;-86
2023/08/27 02:56:42;;;;;;;;;;;20.40;47.60;;;19.75;47.79;100733.25;12144122;19;19952;-86
2023/08/27 03:00:44;;;;;;;;;;;20.40;47.80;;;19.71;48.31;100724.75;12140479;19;19934;-86
2023/08/27 03:04:46;;;;;;;;;;;20.30;47.70;;;19.62;47.96;100736.19;12142337;19;19943;-86
2023/08/27 03:08:48;;;;;;;;;;;20.30;47.70;;;19.66;48.23;100729.66;12138196;19;20256;-86
2023/08/27 03:12:50;;;;;;;;;;;20.30;47.90;;;19.67;48.12;100774.53;12138929;19;19952;-87
2023/08/27 03:16:51;;;;;;;;;;;20.30;47.80;;;19.65;48.15;100760.56;12138385;19;19919;-86
2023/08/27 03:20:53;;;;;;;;;;;20.30;47.80;;;19.64;48.07;100763.38;12137503;19;19915;-86
2023/08/27 03:24:55;;;;;;;;;;;20.30;47.90;;;19.63;48.27;100751.94;12138500;19;19937;-86
2023/08/27 03:28:56;;;;;;;;;;;20.30;47.90;;;19.54;48.22;100744.00;12134774;19;20326;-86
2023/08/27 03:32:58;;;;;;;;;;;20.20;47.80;;;19.52;48.06;100738.00;12139515;19;19938;-86
2023/08/27 03:37:00;;;;;;;;;;;20.20;47.80;;;19.55;48.08;100756.25;12138345;19;20682;-86
2023/08/27 03:41:01;;;;;;;;;;;20.20;47.80;;;19.56;48.15;100750.84;12137816;19;20263;-86
2023/08/27 03:45:03;;;;;;;;;;;20.20;47.80;;;19.48;48.30;100726.03;12137116;19;19926;-86
2023/08/27 03:49:04;;;;;;;;;;;20.20;48.00;;;19.48;48.33;100732.16;12136394;19;19946;-86
2023/08/27 03:53:06;;;;;;;;;;;20.10;47.90;;;19.36;48.33;100705.03;12137389;19;19947;-86
2023/08/27 03:57:08;;;;;;;;;;;20.10;47.90;;;19.41;48.64;100718.66;12134043;19;19914;-86
2023/08/27 04:01:10;;;;;;;;;;;20.10;47.90;;;19.33;48.36;100713.22;12135825;19;20002;-86
2023/08/27 04:05:11;;;;;;;;;;;20.00;48.20;;;19.19;48.23;100679.25;12133421;19;19919;-86
2023/08/27 04:09:13;;;;;;;;;;;19.90;48.10;;;19.14;48.25;100705.31;12131896;19;19918;-86
2023/08/27 04:13:15;;;;;;;;;;;19.80;47.90;;;19.16;48.21;100709.50;12137558;19;20724;-86
2023/08/27 04:17:17;;;;;;;;;;;19.80;48.00;;;19.04;48.27;100685.94;12136003;19;20447;-86
2023/08/27 04:21:19;;;;;;;;;;;19.80;48.10;;;19.04;48.66;100693.88;12134955;19;19914;-86
2023/08/27 04:25:21;;;;;;;;;;;19.70;48.10;;;19.08;48.59;100712.00;12136842;19;20218;-86
2023/08/27 04:29:22;;;;;;;;;;;19.70;48.10;;;19.08;48.41;100704.06;12134563;19;20207;-86
2023/08/27 04:33:24;;;;;;;;;;;19.70;48.20;;;19.13;48.76;100706.31;12135298;19;19929;-86
2023/08/27 04:37:26;;;;;;;;;;;19.70;48.30;;;19.06;48.76;100691.94;12136263;19;20298;-86
2023/08/27 04:41:28;;;;;;;;;;;19.70;48.40;;;19.12;48.60;100700.19;12134611;19;20299;-86
2023/08/27 04:45:29;;;;;;;;;;;19.80;48.30;;;19.08;48.84;100712.00;12135573;19;20214;-86
2023/08/27 04:49:31;;;;;;;;;;;19.80;48.30;;;19.16;48.82;100724.53;12133012;19;19915;-86
2023/08/27 04:53:33;;;;;;;;;;;19.80;48.30;;;19.12;48.87;100717.84;12135886;19;19953;-86
2023/08/27 04:57:38;;;;;;;;;;;19.90;48.40;;;19.21;48.89;100727.63;12134742;19;19927;-86
2023/08/27 05:01:39;;;;;;;;;;;19.90;48.40;;;19.27;49.06;100723.56;12135843;19;19915;-86
2023/08/27 05:05:41;;;;;;;;;;;19.90;48.40;;;19.23;48.89;100725.66;12136013;19;19923;-86
2023/08/27 05:09:46;;;;;;;;;;;20.00;48.80;;;19.28;48.74;100709.34;12143717;19;20202;-86
2023/08/27 05:13:47;;;;;;;;;;;20.00;48.90;;;19.21;49.02;100709.91;12149564;19;20478;-86
2023/08/27 05:17:49;;;;;;;;;;;20.00;48.60;;;19.28;48.72;100714.63;12147097;19;19929;-86
2023/08/27 05:21:50;;;;;;;;;;;20.00;48.50;;;19.22;49.15;100700.16;12144433;19;19930;-86
2023/08/27 05:25:53;;;;;;;;;;;20.00;48.70;;;19.21;48.95;100701.13;12145574;19;19949;-86
2023/08/27 05:29:55;;;;;;;;;;;20.10;48.60;;;19.24;48.98;100706.16;12143808;19;20170;-87
2023/08/27 05:33:56;;;;;;;;;;;20.00;48.60;;;19.17;48.95;100697.94;12144830;19;20431;-87
2023/08/27 05:37:58;;;;;;;;;;;20.00;48.80;;;19.06;49.03;100674.25;12143168;19;20464;-87
2023/08/27 05:42:00;;;;;;;;;;;20.00;48.70;;;19.17;49.06;100705.88;12144305;19;19946;-86
2023/08/27 05:46:01;;;;;;;;;;;20.00;48.80;;;19.26;49.18;100711.31;12144320;19;19914;-86
2023/08/27 05:50:03;;;;;;;;;;;20.00;48.80;;;19.19;49.28;100711.84;12140243;19;20195;-87
2023/08/27 05:54:05;;;;;;;;;;;20.00;48.90;;;19.04;49.24;100670.94;12148723;19;20267;-88
2023/08/27 05:58:07;;;;;;;;;;;20.00;49.20;;;19.34;49.23;100709.63;12153187;19;19922;-86
2023/08/27 06:02:10;;;;;;;;;;;20.10;49.20;;;19.32;49.41;100692.19;12141216;19;19943;-86
2023/08/27 06:06:12;;;;;;;;;;;20.10;49.60;;;19.18;49.43;100656.41;12151870;19;19936;-87
2023/08/27 06:10:16;;;;;;;;;;;20.10;49.90;;;19.37;49.48;100688.16;12155245;19;19926;-86
2023/08/27 06:14:18;;;;;;;;;;;20.20;49.60;;;19.41;49.46;100691.34;12155400;19;19923;-86
2023/08/27 06:18:19;;;;;;;;;;;20.30;49.60;;;19.48;49.37;100695.09;12159335;19;19919;-86
2023/08/27 06:22:21;;;;;;;;;;;20.30;49.70;;;19.59;49.68;100709.97;12157797;19;19923;-85
2023/08/27 06:26:23;;;;;;;;;;;20.40;50.10;;;19.71;49.71;100713.31;12148302;19;20773;-86
2023/08/27 06:30:25;;;;;;;;;;;20.50;49.70;;;19.75;49.83;100712.91;12142527;19;19934;-87
2023/08/27 06:34:26;;;;;;;;;;;20.50;49.70;;;19.73;49.58;100692.81;12143254;19;20014;-86
2023/08/27 06:38:27;;;;;;;;;;;20.70;50.00;;;19.82;49.80;100694.59;12141823;19;19919;-86
2023/08/27 06:42:30;;;;;;;;;;;20.70;50.00;;;19.89;49.81;100693.03;12143606;19;20331;-85
2023/08/27 06:46:33;;;;;;;;;;;20.60;49.80;;;19.96;49.86;100701.25;12143899;19;20230;-86
2023/08/27 06:50:35;;;;;;;;;;;20.80;49.80;;;20.05;49.89;100711.78;12132128;19;20703;-88
2023/08/27 06:54:37;;;;;;;;;;;20.90;49.80;;;20.08;50.10;100711.50;12130073;19;19919;-87
2023/08/27 06:58:39;;;;;;;;;;;20.90;49.70;;;19.99;49.87;100687.69;12137828;19;20358;-87
2023/08/27 07:02:41;;;;;;;;;;;20.90;49.70;;;20.01;49.75;100683.06;12138854;19;20293;-87
2023/08/27 07:06:43;;;;;;;;;;;21.10;49.70;;;19.95;50.09;100665.94;12140569;19;19915;-87
2023/08/27 07:10:44;;;;;;;;;;;21.10;49.70;;;20.21;49.82;100699.72;12138933;19;19925;-87
2023/08/27 07:14:46;;;;;;;;;;;21.20;49.90;;;20.21;49.84;100686.47;12141745;19;19931;-87
2023/08/27 07:18:47;;;;;;;;;;;21.30;49.80;;;20.48;50.21;100725.41;12135820;19;20215;-87
2023/08/27 07:22:48;;;;;;;;;;;21.40;49.70;;;20.50;50.09;100728.75;12140467;19;20247;-88
2023/08/27 07:26:50;;;;;;;;;;;21.40;49.60;;;20.53;50.09;100729.28;12137513;19;19933;-87
2023/08/27 07:30:51;;;;;;;;;;;21.50;49.60;;;20.68;50.03;100732.25;12133034;19;20921;-87
2023/08/27 07:34:52;;;;;;;;;;;21.60;49.60;;;20.64;50.20;100714.97;12135639;19;20275;-87
2023/08/27 07:38:57;;;;;;;;;;;21.70;49.50;;;20.82;50.33;100733.59;12133630;19;20482;-87
2023/08/27 07:42:59;;;;;;;;;;;21.80;49.60;;;20.85;50.12;100717.34;12139307;19;20395;-87
2023/08/27 07:47:00;;;;;;;;;;;21.90;49.40;;;21.01;50.42;100719.31;12138125;19;20390;-87
2023/08/27 07:51:04;;;;;;;;;;;22.00;49.60;;;21.06;50.51;100703.75;12134575;19;20021;-87
2023/08/27 07:55:05;;;;;;;;;;;22.00;49.30;;;21.16;50.20;100712.47;12140124;19;19927;-87
2023/08/27 07:59:07;;;;;;;;;;;22.10;49.30;;;21.05;50.37;100675.53;12125926;19;20134;-87
2023/08/27 08:03:08;;;;;;;;;;;22.20;49.30;;;21.25;50.22;100678.00;12124273;19;19949;-88
2023/08/27 08:07:10;;;;;;;;;;;22.30;49.40;;;21.36;50.30;100689.22;12142162;19;19922;-87
2023/08/27 08:11:11;;;;;;;;;;;22.40;49.30;;;21.49;50.08;100695.94;12142195;19;19933;-86
2023/08/27 08:15:14;;;;;;;;;;;22.40;49.30;;;21.55;50.06;100701.50;12145502;19;19941;-87
2023/08/27 08:19:15;;;;;;;;;;;22.50;49.10;;;21.62;50.19;100699.03;12141734;19;20194;-88
2023/08/27 08:23:17;;;;;;;;;;;22.60;49.20;;;21.73;50.25;100681.97;12141291;19;19954;-88
2023/08/27 08:27:18;;;;;;;;;;;22.70;49.00;;;21.77;50.03;100672.72;12135659;19;19926;-88
2023/08/27 08:31:19;;;;;;;;;;;22.80;49.00;;;21.84;50.32;100666.56;12140675;19;20267;-88
2023/08/27 08:35:21;;;;;;;;;;;22.80;49.10;;;21.91;50.07;100642.03;12139493;19;19933;-87
2023/08/27 08:39:24;;;;;;;;;;;22.90;49.00;;;22.00;50.38;100681.75;12138067;19;20227;-87
2023/08/27 08:43:43;;;;;;;;;;;22.90;49.10;;;22.04;50.06;100691.09;12146361;19;19966;-88
2023/08/27 08:47:45;;;;;;;;;;;23.00;49.00;;;21.95;50.20;100676.09;12151607;19;20351;-88
2023/08/27 08:51:48;;;;;;;;;;;23.00;49.00;;;22.06;50.18;100659.00;12151240;19;20315;-88
2023/08/27 08:55:52;;;;;;;;;;;23.10;49.00;;;22.16;50.24;100658.88;12151437;19;20486;-88
2023/08/27 08:59:54;;;;;;;;;;;23.10;49.10;;;22.16;50.42;100650.91;12145975;19;19923;-87
2023/08/27 09:03:56;;;;;;;;;;;23.20;49.00;;;22.18;50.09;100646.25;12150688;19;20189;-87
2023/08/27 09:07:58;;;;;;;;;;;23.20;48.90;;;22.33;50.29;100649.97;12145655;19;19915;-88
2023/08/27 09:12:00;;;;;;;;;;;23.20;48.90;;;22.36;50.25;100636.38;12149461;19;19939;-86
2023/08/27 09:16:01;;;;;;;;;;;23.30;48.90;;;22.43;50.35;100653.31;12149223;19;19923;-86
2023/08/27 09:20:04;;;;;;;;;;;23.40;48.80;;;22.46;50.39;100644.19;12144868;19;19926;-87
2023/08/27 09:24:06;;;;;;;;;;;23.40;48.70;;;22.52;50.22;100633.72;12153030;19;19953;-85
2023/08/27 09:28:07;;;;;;;;;;;23.50;48.50;;;22.53;50.26;100640.69;12149934;19;19914;-85
2023/08/27 09:32:22;;;;;;;;;;;23.50;48.40;;;22.53;50.14;100638.03;12142597;19;20706;-86
2023/08/27 09:36:25;;;;;;;;;;;23.50;48.30;;;22.55;50.05;100632.56;12140732;19;19956;-84
2023/08/27 09:40:28;;;;;;;;;;;23.60;48.30;;;22.64;50.08;100630.72;12146033;19;19942;-87
2023/08/27 09:44:29;;;;;;;;;;;23.60;48.10;;;22.69;49.92;100631.06;12144549;19;20002;-85
2023/08/27 09:48:31;;;;;;;;;;;23.70;48.30;;;22.59;49.69;100601.13;12144329;19;20187;-85
2023/08/27 09:52:33;;;;;;;;;;;23.70;48.00;;;22.68;50.14;100603.63;12154809;19;20181;-85
2023/08/27 09:56:36;;;;;;;;;;;23.70;48.00;;;22.72;50.12;100615.59;12159692;19;20359;-85
2023/08/27 10:00:37;;;;;;;;;;;23.70;48.10;;;22.80;49.87;100630.72;12158707;19;19926;-86
2023/08/27 10:04:54;;;;;;;;;;;23.70;48.00;;;22.80;49.78;100625.41;12158190;19;20459;-86
2023/08/27 10:08:55;;;;;;;;;;;23.80;47.90;;;22.93;49.70;100652.38;12153979;19;20262;-85
2023/08/27 10:12:56;;;;;;;;;;;23.90;47.90;;;22.94;49.74;100651.34;12156402;19;19931;-85
2023/08/27 10:16:58;;;;;;;;;;;23.90;47.60;;;22.91;50.01;100635.72;12156352;19;19939;-84
2023/08/27 10:21:00;;;;;;;;;;;23.90;47.90;;;23.02;49.79;100650.56;12155926;19;20334;-85
2023/08/27 10:25:04;;;;;;;;;;;23.90;47.70;;;23.05;49.47;100652.88;12156338;19;21058;-85
2023/08/27 10:29:06;;;;;;;;;;;23.90;47.50;;;23.05;49.38;100631.56;12156708;19;19983;-86
2023/08/27 10:33:07;;;;;;;;;;;24.00;47.60;;;23.11;49.45;100619.41;12154483;19;19937;-85
2023/08/27 10:37:11;;;;;;;;;;;24.00;47.30;;;23.16;49.44;100609.91;12151156;19;19926;-87
2023/08/27 10:41:18;;;;;;;;;;;24.00;47.70;;;23.22;49.54;100619.06;12130013;19;19930;-86
2023/08/27 10:45:25;;;;;;;;;;;24.00;47.70;;;23.23;49.55;100618.06;12152913;19;20363;-85
2023/08/27 10:49:34;;;;;;;;;;;24.10;48.00;;;23.06;49.52;100605.75;12149293;19;19960;-85
2023/08/27 10:53:50;;;;;;;;;;;23.90;47.50;;;23.27;49.65;100627.38;12153812;19;19925;-86
2023/08/27 10:58:12;;;;;;;;;;;24.20;47.60;;;23.29;49.79;100619.22;12150466;19;19951;-85
2023/08/27 11:02:16;;;;;;;;;;;24.10;47.70;;;23.09;49.51;100568.16;12146892;19;19918;-85
2023/08/27 11:06:17;;;;;;;;;;;24.20;48.00;;;23.37;49.33;100601.38;12145312;19;19927;-85
2023/08/27 11:10:19;;;;;;;;;;;24.30;48.20;;;23.33;49.26;100586.75;12147371;19;19923;-85
2023/08/27 11:14:24;;;;;;;;;;;24.30;48.20;;;23.41;49.67;100576.06;12149622;19;19930;-87
2023/08/27 11:18:25;;;;;;;;;;;24.30;48.20;;;23.28;49.70;100577.59;12144850;19;20936;-86
2023/08/27 11:22:27;;;;;;;;;;;24.30;47.80;;;23.49;49.36;100612.47;12144640;19;19915;-85
2023/08/27 11:26:28;;;;;;;;;;;24.30;47.80;;;23.46;49.23;100599.50;12146502;19;20291;-86
2023/08/27 11:30:30;;;;;;;;;;;24.30;47.80;;;23.50;49.48;100608.00;12142388;19;20011;-86
2023/08/27 11:34:39;;;;;;;;;;;24.30;47.50;;;23.42;49.47;100583.03;12146781;19;19930;-86
2023/08/27 11:38:40;;;;;;;;;;;24.40;47.60;;;23.54;49.54;100590.66;12145701;19;20293;-86
2023/08/27 11:43:08;;;;;;;;;;;24.40;47.80;;;23.61;49.29;100557.78;12142532;19;19915;-87
2023/08/27 11:47:09;;;;;;;;;;;24.40;47.50;;;23.45;49.67;100498.41;12146509;19;20163;-87
2023/08/27 11:51:10;;;;;;;;;;;24.50;47.70;;;23.51;49.49;100535.03;12149106;19;19919;-87
2023/08/27 11:55:13;;;;;;;;;;;24.50;47.30;;;23.65;49.22;100560.94;12142405;19;19926;-87
2023/08/27 11:59:15;;;;;;;;;;;24.50;47.20;;;23.73;49.11;100570.75;12142120;19;19931;-87
2023/08/27 12:03:16;;;;;;;;;;;24.60;47.40;;;23.73;49.67;100563.59;12150635;19;20262;-88
2023/08/27 12:07:27;;;;;;;;;;;24.60;47.40;;;23.70;49.04;100558.56;12151814;19;19915;-88
2023/08/27 12:11:30;;;;;;;;;;;24.60;47.00;;;23.73;49.11;100560.94;12149676;19;19931;-88
2023/08/27 12:15:31;;;;;;;;;;;24.60;47.10;;;23.81;49.34;100552.06;12147120;19;20220;-87
2023/08/27 12:19:34;;;;;;;;;;;24.60;47.20;;;23.69;49.38;100511.59;12156452;19;19919;-88
2023/08/27 12:23:36;;;;;;;;;;;24.60;47.20;;;23.63;49.24;100493.66;12159947;19;20626;-87
2023/08/27 12:27:40;;;;;;;;;;;24.70;47.30;;;23.83;49.21;100513.53;12159777;19;19925;-88
2023/08/27 12:31:41;;;;;;;;;;;24.60;47.10;;;23.75;48.92;100502.91;12158409;19;19925;-87
2023/08/27 12:35:46;;;;;;;;;;;24.70;47.00;;;23.83;48.95;100504.72;12164384;19;19919;-87
2023/08/27 12:39:48;;;;;;;;;;;24.70;47.10;;;23.78;49.03;100491.06;12158457;19;19934;-89
2023/08/27 12:43:52;;;;;;;;;;;24.70;47.20;;;23.75;49.03;100491.44;12162423;19;19927;-89
2023/08/27 12:47:54;;;;;;;;;;;24.70;47.20;;;23.89;49.20;100527.19;12157170;19;20018;-88
2023/08/27 12:51:55;;;;;;;;;;;24.70;47.10;;;23.92;48.79;100545.50;12159233;19;20734;-87
2023/08/27 12:55:56;;;;;;;;;;;24.70;47.10;;;23.70;48.75;100520.41;12161716;19;19955;-87
2023/08/27 12:59:59;;;;;;;;;;;24.80;46.90;;;23.85;48.84;100556.03;12156631;19;20318;-87
2023/08/27 13:04:00;;;;;;;;;;;24.70;47.00;;;23.94;48.72;100564.81;12159624;19;20263;-87
2023/08/27 13:08:02;;;;;;;;;;;24.70;47.00;;;23.94;49.06;100554.97;12154082;19;20342;-87
2023/08/27 13:12:04;;;;;;;;;;;24.70;46.80;;;23.95;48.81;100561.13;12156086;19;20832;-87
2023/08/27 13:16:05;;;;;;;;;;;24.70;46.60;;;23.95;48.62;100561.13;12161395;19;19919;-87
2023/08/27 13:20:07;;;;;;;;;;;24.70;46.90;;;23.93;48.75;100531.16;12154019;19;19923;-87
2023/08/27 13:24:10;;;;;;;;;;;24.70;47.00;;;23.93;48.57;100531.16;12157152;19;20377;-87
2023/08/27 13:28:13;;;;;;;;;;;24.70;46.80;;;23.87;48.56;100507.84;12156285;19;19919;-87
2023/08/27 13:32:15;;;;;;;;;;;24.70;46.60;;;23.93;48.51;100505.31;12157197;19;19931;-87
2023/08/27 13:36:17;;;;;;;;;;;24.70;46.70;;;23.74;48.52;100479.13;12158811;19;19910;-87
2023/08/27 13:40:18;;;;;;;;;;;24.70;46.60;;;23.87;48.54;100491.84;12153384;19;19922;-87
2023/08/27 13:44:20;;;;;;;;;;;24.70;46.60;;;23.93;48.67;100477.81;12156868;19;20195;-88
2023/08/27 13:48:21;;;;;;;;;;;24.70;46.40;;;23.78;48.34;100453.75;12154913;19;20021;-87
2023/08/27 13:52:24;;;;;;;;;;;24.70;46.60;;;23.62;48.82;100438.66;12157254;19;20223;-88
2023/08/27 13:56:25;;;;;;;;;;;24.70;46.70;;;23.92;48.57;100473.47;12156424;19;19957;-88
2023/08/27 14:00:28;;;;;;;;;;;24.60;46.70;;;23.88;48.31;100464.19;12153649;19;20273;-87
2023/08/27 14:04:30;;;;;;;;;;;24.70;46.70;;;23.94;48.47;100471.47;12154567;19;19918;-87
2023/08/27 14:08:32;;;;;;;;;;;24.70;46.90;;;23.88;48.43;100453.50;12159369;19;20778;-88
2023/08/27 14:12:33;;;;;;;;;;;24.70;46.80;;;23.82;48.65;100439.06;12159534;19;20026;-87
2023/08/27 14:16:35;;;;;;;;;;;24.70;46.30;;;23.91;48.54;100458.50;12156856;19;20346;-86
2023/08/27 14:20:36;;;;;;;;;;;24.70;46.80;;;23.85;48.65;100468.84;12153324;19;19934;-87
2023/08/27 14:24:37;;;;;;;;;;;24.70;46.80;;;23.89;48.61;100481.84;12158760;19;21133;-86
2023/08/27 14:28:39;;;;;;;;;;;24.60;46.80;;;23.91;48.22;100501.16;12154615;19;19944;-87
2023/08/27 14:32:40;;;;;;;;;;;24.60;46.90;;;23.88;48.55;100493.53;12154975;19;20192;-87
2023/08/27 14:36:42;;;;;;;;;;;24.60;46.70;;;23.89;48.53;100481.84;12150815;19;19919;-87
2023/08/27 14:40:44;;;;;;;;;;;24.60;46.70;;;23.66;48.62;100460.47;12147241;19;19919;-87
2023/08/27 14:44:45;;;;;;;;;;;24.60;46.80;;;23.90;48.13;100504.81;12149142;19;19934;-88
2023/08/27 14:48:48;;;;;;;;;;;24.60;46.80;;;23.79;48.00;100488.25;12148908;19;20294;-87
2023/08/27 14:52:49;;;;;;;;;;;24.60;46.70;;;23.88;48.28;100496.19;12152384;19;20810;-87
2023/08/27 14:56:52;;;;;;;;;;;24.60;46.70;;;23.88;47.99;100504.19;12148890;19;20864;-87
2023/08/27 15:00:54;;;;;;;;;;;24.60;46.80;;;23.80;48.09;100492.56;12141909;19;19952;-87
2023/08/27 15:04:55;;;;;;;;;;;24.60;46.80;;;23.81;48.40;100498.72;12138832;19;20966;-87
2023/08/27 15:08:57;;;;;;;;;;;24.60;46.80;;;23.85;48.13;100513.38;12131125;19;19911;-87
2023/08/27 15:12:58;;;;;;;;;;;24.50;46.70;;;23.82;48.39;100509.22;12135420;19;19948;-87
2023/08/27 15:17:00;;;;;;;;;;;24.50;46.80;;;23.50;48.29;100461.41;12130856;19;20248;-88
2023/08/27 15:21:01;;;;;;;;;;;24.50;47.00;;;23.71;48.42;100516.75;12133848;19;19927;-87
2023/08/27 15:25:03;;;;;;;;;;;24.40;47.00;;;23.55;48.22;100512.34;12137425;19;19950;-87
2023/08/27 15:29:05;;;;;;;;;;;24.40;47.50;;;23.72;48.05;100529.94;12127543;19;20367;-88
2023/08/27 15:33:06;;;;;;;;;;;24.30;47.40;;;23.66;48.40;100524.47;12129607;19;20206;-88
2023/08/27 15:37:08;;;;;;;;;;;24.30;48.10;;;23.55;47.83;100509.69;12139951;19;19919;-85
2023/08/27 15:41:09;;;;;;;;;;;24.20;47.70;;;23.53;47.96;100515.19;12150963;19;21014;-85
2023/08/27 15:45:11;;;;;;;;;;;24.10;47.90;;;23.48;48.47;100498.88;12147851;19;19997;-84
2023/08/27 15:49:12;;;;;;;;;;;24.10;48.00;;;23.42;48.27;100496.91;12145229;19;19954;-85
2023/08/27 15:53:14;;;;;;;;;;;24.00;48.00;;;23.38;48.30;100491.09;12143345;19;20290;-85
2023/08/27 15:57:15;;;;;;;;;;;24.00;48.40;;;23.26;48.23;100468.50;12138906;19;20276;-85
2023/08/27 16:01:17;;;;;;;;;;;23.90;48.50;;;22.83;48.25;100406.72;12140848;19;20193;-86
2023/08/27 16:05:18;;;;;;;;;;;23.80;48.40;;;23.07;48.07;100460.94;12139821;19;20820;-86
2023/08/27 16:09:24;;;;;;;;;;;23.70;48.30;;;22.97;48.07;100477.09;12133979;19;20539;-86
2023/08/27 16:13:26;;;;;;;;;;;23.60;48.40;;;22.78;48.27;100478.28;12139209;19;20018;-85
2023/08/27 16:17:28;;;;;;;;;;;23.50;48.50;;;22.88;48.28;100486.94;12140763;19;20747;-86
2023/08/27 16:21:29;;;;;;;;;;;23.40;48.60;;;22.83;48.70;100493.78;12139687;19;19930;-85
2023/08/27 16:25:31;;;;;;;;;;;23.40;48.80;;;22.76;48.64;100482.94;12140522;19;19922;-86
2023/08/27 16:29:33;;;;;;;;;;;23.40;48.90;;;22.86;48.58;100493.44;12138042;19;19923;-86
2023/08/27 16:33:35;;;;;;;;;;;23.40;48.90;;;22.79;48.59;100479.97;12141417;19;19955;-86
2023/08/27 16:37:36;;;;;;;;;;;23.30;48.90;;;22.63;48.33;100461.34;12138675;19;19926;-85
2023/08/27 16:41:38;;;;;;;;;;;23.30;48.90;;;22.74;48.55;100482.31;12141508;19;19927;-86
2023/08/27 16:45:39;;;;;;;;;;;23.30;48.90;;;22.66;48.61;100469.03;12136574;19;19942;-85
2023/08/27 16:49:40;;;;;;;;;;;23.20;48.80;;;22.60;48.56;100467.03;12141266;19;19960;-85
2023/08/27 16:53:42;;;;;;;;;;;23.20;49.00;;;22.39;48.38;100439.13;12145441;19;20259;-85
2023/08/27 16:57:43;;;;;;;;;;;23.10;49.00;;;22.54;48.64;100477.34;12140736;19;19927;-85
2023/08/27 17:01:45;;;;;;;;;;;23.10;49.00;;;22.43;48.71;100455.56;12137677;19;19933;-86
2023/08/27 17:05:55;;;;;;;;;;;23.00;48.90;;;22.46;48.73;100473.88;12157123;19;19922;-85
2023/08/27 17:09:56;;;;;;;;;;;23.00;49.10;;;22.24;48.94;100444.28;12149915;19;19929;-86
2023/08/27 17:13:59;;;;;;;;;;;23.00;49.20;;;22.39;48.60;100472.88;12152690;19;20675;-86
2023/08/27 17:18:00;;;;;;;;;;;22.90;49.20;;;22.32;48.57;100462.06;12154682;19;20350;-86
2023/08/27 17:22:02;;;;;;;;;;;22.90;49.20;;;22.18;48.83;100449.44;12154923;19;20486;-85
2023/08/27 17:26:04;;;;;;;;;;;22.90;49.20;;;22.36;48.88;100484.69;12161064;19;19921;-86
2023/08/27 17:30:06;;;;;;;;;;;22.80;49.30;;;22.16;48.71;100446.09;12154888;19;19931;-86
2023/08/27 17:34:07;;;;;;;;;;;22.80;49.30;;;22.27;49.25;100475.88;12161696;19;20266;-86
2023/08/27 17:38:09;;;;;;;;;;;22.90;49.40;;;22.27;49.13;100478.53;12157383;19;19923;-86
2023/08/27 17:42:10;;;;;;;;;;;22.90;49.40;;;22.16;48.80;100470.84;12155107;19;19919;-86
2023/08/27 17:46:12;;;;;;;;;;;22.80;49.40;;;22.13;49.21;100467.72;12145222;19;19930;-86
2023/08/27 17:50:13;;;;;;;;;;;22.80;49.40;;;22.15;49.33;100482.50;12142618;19;19927;-85
2023/08/27 17:54:15;;;;;;;;;;;22.70;49.40;;;22.16;49.15;100493.97;12149245;19;20447;-85
2023/08/27 17:58:16;;;;;;;;;;;22.70;49.50;;;22.16;48.99;100483.31;12147526;19;19918;-85
2023/08/27 18:02:18;;;;;;;;;;;22.70;49.60;;;22.14;48.88;100499.44;12144790;19;20259;-86
2023/08/27 18:06:19;;;;;;;;;;;22.70;49.50;;;22.10;49.42;100498.94;12151797;19;19919;-85
2023/08/27 18:10:21;;;;;;;;;;;22.70;49.60;;;22.07;49.13;100495.81;12149840;19;19923;-86